GENERAL EDWARD LAWRENCE LOGAN INTL

KBOS (BOS)
Boston, Massachusetts
Towered

Vatsim Metar:
KBOS 291854Z 18011KT 10SM FEW070 BKN120 OVC220 10/02 A3014 RMK AO2 SLP206 T01000022

GENERAL EDWARD LAWRENCE LOGAN INTL ATC

BOS_S_GND - 121.900 - Christopher Marino
Boston Ground

Traffic

Inbound:
Ident
Type
Name
ETA
Phase
JBU74
A320
Ralf Dworzsak EDDF
19:49 Z
Descent
JBU552
A321
1670911
19:51 Z
Descent
JBU2066
A321
Boris Gromov UUWW
19:51 Z
Descent
DAL1709
A321
Ethan Greenfield KABI
19:52 Z
Descent
N425GJ
C510
Nate Lehnert KMDW
20:05 Z
Cruse
AAL2269
B738
Jim Barrett KELM
20:12 Z
Cruse
AAL1452
B78X
Matthew P KOMA
20:17 Z
Cruse
JBU988
A21N
Amit B KSEA
Unknown
GMA868
B738
Max FHAW
21:10 Z
Cruse
UAL8853
B789
Samuil Iliev EDDS
21:10 Z
Cruse
N8008S
TBM9
Bryan Richards
21:39 Z
Climb
DAL275
A320
Anthony Ciceu CYYZ
Boarding
FDX168
B738
Dmitrii ULLI
22:32 Z
Cruse
WAT3184
A320
Szymon Puzdrowski KLGB
21:59 Z
Cruse
DAL776
A21N
Dakota Earl KSLC
Taxiing Out
BAW1994
B788
David Norfolk EGKK
22:54 Z
Descent
VJT23
C700
Gage patrick KDEN
22:33 Z
Cruse
PAT194D
MD11
Diego Leonardi LEIB
22:09 Z
Cruse
JBU8580
A321
Pedro KJFK
23:00 Z
Cruse
DLH422
A346
Zain Elwakil KJFK
00:31 Z
Cruse

Outbound:
Ident
Type
Name
Destination
Phase
NKS3151
A320
Brett Smith KATL
KMIA
Taxiing Out
DAL2063
A35K
Darrian Foreman KLYH
KRIC
Climb
N802Q
C25C
yuri CYYC
KDCA
Climb
AZU9029
A21N
Alex Paegle KCVG
LPPT
Climb